Aviation Digital Data Service (ADDS)

Output produced by METARs form (2236 UTC 19 April 2014)
found at http://aviationweather.gov/adds/metars/
 
KAUG 191723Z 1918/2018 33014G26KT P6SM BKN050 
     FM200100 32008KT P6SM SKC 
     FM201200 36007KT P6SM SKC